Airfield :
LOGIN :

Register | Disclaimer

   EN    FR    IT 

 










Legend :    VFR   Marginal VFR   IFR   Intensive IFR   Very Intensive IFR
Visi :
Ceiling :
>= 8 km
>= 3000ft
5 to 8 km
1000 to 3000 ft
1500m to 5 km
500 to 1000 ft
800 to 1500m
200 to 500 ft
< 800m
< 200 ft
Symbols :   Thunderstorms  Fog  Heavy snow  Heavy precipitations  Wind > 20 kt
SIGMETs :     Misc.  Thunderstorms  Icing  Turbulence  Mountain Waves  Volcanic Ashes







- Airport Elevation : 83 ft
- IATA code : LHR
- Download approach charts


EGLL - London Heathrow

CURRENT METAR :
  • 170150Z AUTO 26011KT 9999 NCD 06/04 Q1010 NOSIG

EXPIRED METARs :
  • 170120Z AUTO 26011KT 9999 BKN024 BKN032 07/05 Q1009 NOSIG
  • 170050Z AUTO 26011KT 9999 BKN032 07/05 Q1009 NOSIG
  • 170020Z AUTO 26010KT 9999 OVC033 07/05 Q1008 NOSIG
  • 162350Z AUTO 26010KT 9999 SCT017 BKN037 07/06 Q1008
  • 162320Z AUTO 25009KT 9999 BKN016 08/06 Q1007

TAF TAF EGLL
Valid from the 17 at 00:00 until the 18 at 06:00 UTC


162302Z 1700/1806 26008KT 9999 FEW040
PROB30
TEMPO 1700/1702 BKN014
PROB30 1705/1710 7000
BECMG 1717/1720 18012KT
PROB40
TEMPO 1722/1806 BKN014
TEMPO 1804/1806 18015G25KT
No reported NOTAMs for that airfield.



MET'MAP, your aeronautical weather chart ! - Copyright ORBIFLY December 2007 - Disclaimer

ORBIFLY MET'MAP TEAM :

Programming & Development : Alexandra Zaïnal
Concept & Development : Baudouin d'Aumeries
Co-Development & Prog : Marc-Olivier Méhu
Technical & hardware support : Manuel Goepfert

Contact : metmap@orbifly.com




SOURCES & CREDITS :

   NOAA